LGKRLGIO

Guest
Details From LGKR - IOANNIS KAPODISTRIAS INTL
To LGIO - IOANNINA
Flight Number -
Tags generated
Created
Modified
Stats Distance 43 nm / 79 km
Max Altitude 0 ft / 0 m
Waypoints 3
Social Downloads 8
Likes 0
Share

Download

Looking for another format? Having issues loading an existing format? Contact us
Advertisement - Login to hide

Notes

Basic altitude profile: - Ascent Rate: 2500ft/min - Ascent Speed: 250kts - Cruise Altitude: 35000ft - Cruise Speed: 420kts - Descent Rate: 1500ft/min - Descent Speed: 250kts Options: - Use NATs: no - Use PACOTS: no - Use low airways: yes - Use high airways: yes

Route

LGKR YNN LGIO

ID Type Via Altitude (ft/m) Position (lat/lon) Dist (leg/tot) Name
O LGKR APT - 0 / 0 39.60178 / 19.91191 - / 0 nm IOANNIS KAPODISTRIAS INTL
YNN VOR - 0 / 0 39.70139 / 20.82000 42 / 42 nm IOANNINA VOR-DME
O LGIO APT - 0 / 0 39.69653 / 20.82250 0 / 42 nm IOANNINA

Altitude Profile

Advertisement - Login to hide

LGKR

Details ICAO LGKR (CFU)
Name Ioannis Kapodistrias Intl
Region Greece
Timezone Europe/Athens (UTC+3.0)
Stats Elevation 0 ft / 0 m (AMSL)
Location 39.602300° 19.912000°
Runways 1
Magnetic Variation 4.437° E

METAR

LGKR 081250Z 01006KT CAVOK 27/17 Q1011 NOSIG

Decode

TAF

TAF LGKR 081100Z 0812/0912 VRB05KT 9999 FEW020 BECMG 0812/0814 33012KT TEMPO 0812/0818 33012G25KT BECMG 0822/0824 VRB05KT

Decode

Departure Runways

ID Width Length Bearing (true/mag) Surface Threshold Overrun Markings Lighting
16 148 ft / 45 m 7,604 ft / 2,318 m 168.78° / 164.35° ASPHALT 1,342 ft / 409 m 0 ft / 0 m PREC-APP EDGE THRESHOLD ALSF-I
34 148 ft / 45 m 7,604 ft / 2,318 m 348.79° / 344.35° ASPHALT 0 ft / 0 m 0 ft / 0 m PREC-APP EDGE THRESHOLD SALS REIL-OMNI

LGIO

Details ICAO LGIO (IOA)
Name Ioannina King Pyrros Airport
Region Greece
Timezone Europe/Athens (UTC+3.0)
Stats Elevation 1,558 ft / 475 m (AMSL)
Location 39.697300° 20.821900°
Runways 1
Magnetic Variation 4.577° E

METAR

LGIO 081250Z AUTO 28007KT 250V340 //// // ////// 28/09 Q1012 RE//

Decode

TAF

Not found

Destination Runways

ID Width Length Bearing (true/mag) Surface Threshold Overrun Markings Lighting
14 148 ft / 45 m 7,866 ft / 2,397 m 141.77° / 137.20° ASPHALT 0 ft / 0 m 0 ft / 0 m PREC-APP CENTERLINE EDGE THRESHOLD
32 148 ft / 45 m 7,866 ft / 2,397 m 321.78° / 317.21° ASPHALT 394 ft / 120 m 0 ft / 0 m PREC-APP CENTERLINE EDGE THRESHOLD

Popular Alternatives